Time;durP1;ratioP1;P1;durP2;ratioP2;P2;SDS_P1;SDS_P2;PMS_P1;PMS_P2;Temp;Humidity;BMP_temperature;BMP_pressure;BME280_temperature;BME280_humidity;BME280_pressure;Samples;Min_cycle;Max_cycle;Signal;HPM_P1;HPM_P2
2021/01/31 00:00:02;;;;;;;16.42;6.42;;;;;;;4.56;97.45;98410.48;1802818;79;21825;-78
2021/01/31 00:03:14;;;;;;;18.48;7.22;;;;;;;4.51;97.35;98406.09;1801404;79;21707;-77
2021/01/31 00:06:20;;;;;;;13.45;6.47;;;;;;;4.49;97.42;98406.81;1801282;79;21266;-78
2021/01/31 00:09:26;;;;;;;15.95;5.85;;;;;;;4.46;97.45;98403.62;1801159;79;21299;-78
2021/01/31 00:12:32;;;;;;;12.65;5.90;;;;;;;4.44;97.55;98407.03;1801259;79;21792;-77
2021/01/31 00:15:42;;;;;;;18.60;6.70;;;;;;;4.42;97.68;98403.14;1802950;78;21368;-78
2021/01/31 00:18:48;;;;;;;14.20;6.05;;;;;;;4.42;97.77;98405.01;1808547;79;21314;-77
2021/01/31 00:21:54;;;;;;;16.15;5.35;;;;;;;4.42;97.88;98402.30;1808430;79;21302;-77
2021/01/31 00:25:00;;;;;;;17.42;5.55;;;;;;;4.42;97.92;98405.01;1806939;79;21829;-77
2021/01/31 00:28:05;;;;;;;12.00;6.25;;;;;;;4.41;97.96;98407.39;1808328;79;21302;-77
2021/01/31 00:31:10;;;;;;;18.92;6.37;;;;;;;4.41;98.01;98401.46;1808282;79;21297;-78
2021/01/31 00:34:16;;;;;;;14.07;5.85;;;;;;;4.39;97.95;98398.63;1808234;79;21132;-78
2021/01/31 00:37:24;;;;;;;15.50;6.37;;;;;;;4.33;97.94;98391.57;1808538;79;21282;-78
2021/01/31 00:40:30;;;;;;;16.95;5.90;;;;;;;4.27;98.02;98393.63;1808504;79;21334;-77
2021/01/31 00:43:35;;;;;;;13.90;6.28;;;;;;;4.22;98.14;98394.69;1808579;79;21317;-78
2021/01/31 00:46:47;;;;;;;13.25;6.15;;;;;;;4.16;98.36;98389.19;1807053;79;21322;-78
2021/01/31 00:49:52;;;;;;;13.50;5.75;;;;;;;4.12;98.63;98386.50;1809081;79;21291;-78
2021/01/31 00:52:58;;;;;;;15.28;5.65;;;;;;;4.10;98.92;98379.94;1808317;79;21301;-78
2021/01/31 00:56:07;;;;;;;13.45;5.28;;;;;;;4.08;99.14;98380.09;1807599;79;21830;-78
2021/01/31 00:59:12;;;;;;;11.53;5.47;;;;;;;4.06;99.29;98375.91;1807024;79;21232;-78
2021/01/31 01:02:24;;;;;;;15.40;6.25;;;;;;;4.07;99.50;98374.36;1806943;79;21310;-77
2021/01/31 01:05:32;;;;;;;20.02;6.85;;;;;;;4.06;99.61;98369.14;1808610;79;21172;-78
2021/01/31 01:08:37;;;;;;;13.05;5.85;;;;;;;4.04;99.73;98364.41;1808696;79;21817;-78
2021/01/31 01:11:43;;;;;;;13.25;5.85;;;;;;;4.03;99.84;98361.38;1807008;79;21203;-78
2021/01/31 01:14:49;;;;;;;13.60;6.17;;;;;;;4.01;99.94;98359.38;1806955;79;21270;-78
2021/01/31 01:17:56;;;;;;;10.60;5.83;;;;;;;4.00;100.00;98353.61;1811566;79;21317;-77
2021/01/31 01:21:03;;;;;;;11.28;5.03;;;;;;;4.01;100.00;98345.34;1815412;79;21218;-77
2021/01/31 01:24:08;;;;;;;13.50;4.83;;;;;;;4.06;100.00;98338.03;1816940;79;21821;-77
2021/01/31 01:27:14;;;;;;;12.35;5.50;;;;;;;4.09;100.00;98344.41;1817598;79;22266;-77
2021/01/31 01:30:23;;;;;;;16.42;6.60;;;;;;;4.07;100.00;98343.77;1817483;79;21896;-78
2021/01/31 01:33:29;;;;;;;15.60;5.22;;;;;;;4.07;100.00;98344.60;1817744;79;21817;-78
2021/01/31 01:36:34;;;;;;;10.38;5.35;;;;;;;4.06;100.00;98334.81;1815528;79;21179;-78
2021/01/31 01:39:40;;;;;;;11.57;5.03;;;;;;;4.05;100.00;98330.43;1817084;79;21286;-77
2021/01/31 01:42:46;;;;;;;14.50;5.67;;;;;;;4.01;100.00;98327.75;1816312;79;21264;-77
2021/01/31 01:45:53;;;;;;;12.50;5.95;;;;;;;4.00;100.00;98327.91;1773572;79;21325;-77
2021/01/31 01:49:10;;;;;;;12.05;5.70;;;;;;;3.99;100.00;98326.24;1817311;79;21333;-78
2021/01/31 01:52:45;;;;;;;11.55;6.78;;;;;;;3.95;100.00;98325.79;1816881;79;21737;-77
2021/01/31 01:56:10;;;;;;;11.48;4.92;;;;;;;3.97;100.00;98325.59;1817019;79;21267;-78
2021/01/31 01:59:16;;;;;;;13.00;5.97;;;;;;;3.99;100.00;98320.83;1811966;79;22525;-78
2021/01/31 02:02:38;;;;;;;11.95;5.50;;;;;;;3.99;100.00;98320.83;1816934;79;21285;-78
2021/01/31 02:05:44;;;;;;;14.60;6.80;;;;;;;3.99;100.00;98310.84;1817047;79;21325;-78
2021/01/31 02:08:50;;;;;;;15.00;5.58;;;;;;;4.03;100.00;98313.52;1816888;79;21286;-77
2021/01/31 02:11:59;;;;;;;9.58;5.55;;;;;;;4.07;100.00;98319.41;1817051;79;21213;-77
2021/01/31 02:15:08;;;;;;;19.20;6.05;;;;;;;4.09;100.00;98314.64;1817099;79;21209;-78
2021/01/31 02:18:24;;;;;;;15.48;5.53;;;;;;;4.07;99.90;98320.25;1814696;79;21242;-78
2021/01/31 02:21:47;;;;;;;10.53;5.37;;;;;;;4.02;99.73;98317.77;1806046;79;21337;-78
2021/01/31 02:24:58;;;;;;;15.58;5.37;;;;;;;3.99;99.67;98318.13;1787669;79;21290;-78
2021/01/31 02:28:27;;;;;;;10.05;4.62;;;;;;;3.97;99.68;98317.48;1812951;79;21889;-78
2021/01/31 02:32:23;;;;;;;15.15;5.60;;;;;;;3.95;99.74;98322.21;1817058;79;21690;-78
2021/01/31 02:35:30;;;;;;;13.13;4.60;;;;;;;3.94;99.81;98312.42;1815644;79;21325;-78
2021/01/31 02:38:44;;;;;;;11.68;4.85;;;;;;;3.93;99.97;98318.87;1817063;79;21286;-78
2021/01/31 02:41:57;;;;;;;10.50;4.72;;;;;;;3.96;100.00;98320.70;1816943;79;21278;-78
2021/01/31 02:45:32;;;;;;;9.10;4.67;;;;;;;4.05;100.00;98328.23;1816931;79;21715;-78
2021/01/31 02:49:16;;;;;;;9.63;4.15;;;;;;;4.15;100.00;98339.64;1815551;79;21361;-79
2021/01/31 02:52:49;;;;;;;11.38;4.70;;;;;;;4.23;100.00;98347.66;1816979;79;21262;-79
2021/01/31 02:56:09;;;;;;;9.20;4.92;;;;;;;4.27;100.00;98344.91;1818051;79;21262;-78
2021/01/31 02:59:19;;;;;;;14.18;4.87;;;;;;;4.29;99.90;98336.63;1807654;79;21215;-78
2021/01/31 03:02:33;;;;;;;11.20;5.22;;;;;;;4.33;99.78;98334.73;1816902;79;21302;-79
2021/01/31 03:05:44;;;;;;;12.82;5.22;;;;;;;4.38;99.65;98350.94;1817137;79;21167;-78
2021/01/31 03:09:28;;;;;;;10.45;4.85;;;;;;;4.41;99.54;98360.02;1815747;79;21341;-78
2021/01/31 03:12:53;;;;;;;12.45;6.55;;;;;;;4.47;99.43;98366.91;1817176;79;21297;-78
2021/01/31 03:16:07;;;;;;;10.20;4.50;;;;;;;4.53;99.32;98370.22;1817187;79;21718;-79
2021/01/31 03:19:23;;;;;;;13.85;5.40;;;;;;;4.58;99.19;98362.89;1812242;78;21762;-78
2021/01/31 03:22:40;;;;;;;12.40;5.33;;;;;;;4.65;99.06;98361.11;1801103;79;21750;-78
2021/01/31 03:25:55;;;;;;;11.30;5.12;;;;;;;4.72;98.92;98360.70;1802819;79;21294;-78
2021/01/31 03:29:01;;;;;;;14.45;5.10;;;;;;;4.76;98.63;98366.09;1791690;79;21220;-79
2021/01/31 03:32:17;;;;;;;15.05;5.55;;;;;;;4.78;98.36;98378.91;1802907;79;21342;-78
2021/01/31 03:35:28;;;;;;;10.38;4.67;;;;;;;4.81;98.13;98373.13;1801979;79;21770;-78
2021/01/31 03:38:47;;;;;;;12.00;5.45;;;;;;;4.84;97.91;98374.61;1801860;79;21282;-78
2021/01/31 03:41:52;;;;;;;13.20;4.87;;;;;;;4.90;97.79;98373.05;1785310;79;21390;-78
2021/01/31 03:44:59;;;;;;;11.60;5.37;;;;;;;4.91;97.51;98373.38;1801772;79;21329;-78
2021/01/31 03:48:09;;;;;;;11.12;4.85;;;;;;;4.94;97.35;98374.33;1802600;79;21200;-79
2021/01/31 03:51:14;;;;;;;12.95;5.45;;;;;;;4.95;97.16;98374.68;1801437;79;21164;-78
2021/01/31 03:54:19;;;;;;;16.23;5.67;;;;;;;4.97;97.03;98371.25;1802765;79;21303;-78
2021/01/31 03:57:41;;;;;;;15.93;5.58;;;;;;;4.99;96.85;98369.22;1802828;79;21223;-78
2021/01/31 04:00:54;;;;;;;14.43;5.85;;;;;;;4.97;96.70;98364.48;1801743;79;21183;-78
2021/01/31 04:04:11;;;;;;;11.55;5.78;;;;;;;4.98;96.64;98370.22;1802829;79;21286;-78
2021/01/31 04:07:17;;;;;;;12.35;6.40;;;;;;;5.04;96.75;98378.97;1802716;79;21266;-78
2021/01/31 04:10:23;;;;;;;12.60;5.42;;;;;;;5.09;96.81;98371.13;1802824;79;21829;-78
2021/01/31 04:13:30;;;;;;;14.58;5.47;;;;;;;5.11;96.59;98382.59;1802808;79;21853;-77
2021/01/31 04:16:39;;;;;;;16.80;6.62;;;;;;;5.10;96.34;98378.21;1802795;79;21191;-78
2021/01/31 04:19:45;;;;;;;16.40;6.65;;;;;;;5.10;96.20;98389.89;1801524;79;21342;-78
2021/01/31 04:22:50;;;;;;;15.63;6.53;;;;;;;5.07;96.01;98396.19;1805772;79;21187;-78
2021/01/31 04:25:57;;;;;;;10.60;6.47;;;;;;;5.02;95.94;98398.11;1808422;79;21905;-76
2021/01/31 04:29:03;;;;;;;15.05;6.78;;;;;;;4.97;96.00;98387.52;1807581;79;21310;-77
2021/01/31 04:32:12;;;;;;;17.17;7.67;;;;;;;4.94;96.21;98382.45;1808503;79;21171;-78
2021/01/31 04:35:22;;;;;;;10.55;5.83;;;;;;;4.91;96.47;98376.08;1807647;79;21341;-78
2021/01/31 04:38:29;;;;;;;15.68;6.92;;;;;;;4.92;96.75;98382.66;1809294;79;21684;-78
2021/01/31 04:41:39;;;;;;;14.25;7.08;;;;;;;4.95;96.94;98395.84;1808510;79;21274;-78
2021/01/31 04:44:45;;;;;;;14.20;6.92;;;;;;;4.96;97.05;98395.32;1806889;79;21215;-79
2021/01/31 04:48:01;;;;;;;16.70;7.58;;;;;;;4.97;97.12;98388.87;1808518;79;21279;-79
2021/01/31 04:51:21;;;;;;;19.42;7.80;;;;;;;4.97;97.10;98403.77;1808793;79;21289;-79
2021/01/31 04:55:01;;;;;;;15.05;7.10;;;;;;;4.93;97.12;98412.77;1808404;79;21333;-79
2021/01/31 04:58:22;;;;;;;15.25;6.80;;;;;;;4.93;97.25;98420.91;1806943;79;21286;-78
2021/01/31 05:01:37;;;;;;;17.17;7.40;;;;;;;4.91;97.35;98427.03;1807346;79;21317;-78
2021/01/31 05:04:58;;;;;;;19.32;8.23;;;;;;;4.91;97.46;98439.75;1808301;79;21167;-79
2021/01/31 05:08:08;;;;;;;;;;;;;;;4.86;97.56;98433.01;1811556;79;21180;-78
2021/01/31 05:11:26;;;;;;;18.67;8.18;;;;;;;4.84;97.75;98447.23;1808474;79;20276;-78
2021/01/31 05:14:48;;;;;;;15.28;8.15;;;;;;;4.81;97.91;98460.33;1808439;79;21344;-78
2021/01/31 05:17:57;;;;;;;17.62;8.55;;;;;;;4.79;98.11;98468.63;1808376;79;21211;-78
2021/01/31 05:21:05;;;;;;;20.48;7.83;;;;;;;4.81;98.28;98477.42;1808436;79;21279;-78
2021/01/31 05:24:22;;;;;;;16.42;7.83;;;;;;;4.79;98.35;98484.87;1802029;79;21195;-78
2021/01/31 05:27:27;;;;;;;15.70;8.23;;;;;;;4.80;98.49;98499.29;1786520;79;21283;-78
2021/01/31 05:30:34;;;;;;;16.15;8.75;;;;;;;4.83;98.66;98532.25;1801394;79;21321;-78
2021/01/31 05:33:47;;;;;;;20.02;9.25;;;;;;;4.90;98.83;98532.38;1803249;79;21294;-78
2021/01/31 05:36:52;;;;;;;10.85;5.67;;;;;;;4.96;98.82;98534.86;1786809;79;21287;-79
2021/01/31 05:40:08;;;;;;;13.72;6.03;;;;;;;4.98;98.71;98531.44;1802047;79;21829;-78
2021/01/31 05:43:27;;;;;;;11.43;5.55;;;;;;;5.07;98.67;98539.82;1802764;79;21822;-78
2021/01/31 05:46:41;;;;;;;12.13;6.00;;;;;;;5.17;98.51;98545.81;1786543;79;21322;-78
2021/01/31 05:49:53;;;;;;;12.33;5.42;;;;;;;5.18;98.07;98554.30;1802255;79;21357;-78
2021/01/31 05:52:58;;;;;;;8.78;4.62;;;;;;;5.23;97.75;98570.84;1801437;79;21231;-78
2021/01/31 05:56:36;;;;;;;14.38;6.85;;;;;;;5.30;97.51;98583.98;1801374;79;21291;-78
2021/01/31 05:59:49;;;;;;;14.58;5.25;;;;;;;5.39;97.22;98575.25;1802216;79;21176;-78
2021/01/31 06:03:13;;;;;;;10.18;5.05;;;;;;;5.46;96.71;98578.92;1801376;79;21314;-77
2021/01/31 06:06:25;;;;;;;9.40;5.12;;;;;;;5.56;96.30;98586.78;1802873;79;21290;-78
2021/01/31 06:09:41;;;;;;;7.67;4.70;;;;;;;5.59;95.56;98579.61;1802476;79;21224;-77
2021/01/31 06:12:48;;;;;;;10.58;5.17;;;;;;;5.64;95.01;98583.95;1801319;79;21227;-79
2021/01/31 06:16:00;;;;;;;10.13;5.90;;;;;;;5.70;94.52;98581.88;1802846;79;21786;-77
2021/01/31 06:19:30;;;;;;;10.35;6.70;;;;;;;5.67;93.60;98583.59;1802711;79;21290;-78
2021/01/31 06:22:56;;;;;;;9.65;6.15;;;;;;;5.67;92.63;98594.96;1803041;79;21350;-77
2021/01/31 06:26:02;;;;;;;8.75;6.67;;;;;;;5.67;91.74;98604.45;1802756;79;21227;-77
2021/01/31 06:29:13;;;;;;;10.13;7.58;;;;;;;5.68;90.93;98602.91;1802689;79;21287;-77
2021/01/31 06:32:34;;;;;;;9.30;5.50;;;;;;;5.70;89.91;98604.94;1801703;79;21369;-78
2021/01/31 06:35:40;;;;;;;10.43;7.35;;;;;;;5.72;89.05;98609.64;1801674;79;21366;-78
2021/01/31 06:39:10;;;;;;;13.40;8.83;;;;;;;5.74;88.33;98613.03;1802734;79;21303;-78
2021/01/31 06:42:44;;;;;;;9.57;6.53;;;;;;;5.78;88.15;98618.38;1803505;79;21220;-77
2021/01/31 06:46:10;;;;;;;13.32;9.98;;;;;;;5.86;88.06;98633.74;1802965;79;21285;-77
2021/01/31 06:49:41;;;;;;;16.50;12.20;;;;;;;5.92;87.76;98639.80;1802744;79;21298;-77
2021/01/31 06:53:05;;;;;;;22.77;14.78;;;;;;;5.92;87.03;98648.45;1803819;79;21251;-77
2021/01/31 06:56:30;;;;;;;26.73;17.70;;;;;;;5.84;86.25;98670.57;1764692;81;21821;-78
2021/01/31 07:00:17;;;;;;;31.15;19.55;;;;;;;5.82;85.81;98678.55;1802784;79;21215;-78
2021/01/31 07:04:00;;;;;;;30.00;18.82;;;;;;;5.76;85.51;98685.57;1763646;81;21372;-77
2021/01/31 07:07:37;;;;;;;25.82;18.85;;;;;;;5.70;84.94;98694.45;1802841;79;21295;-77
2021/01/31 07:11:18;;;;;;;31.40;20.00;;;;;;;5.69;84.65;98709.54;1763328;81;21777;-78
2021/01/31 07:14:34;;;;;;;;;;;;;;;5.73;84.78;98705.44;1805525;79;21187;-78
2021/01/31 07:17:59;;;;;;;31.65;21.35;;;;;;;5.81;84.53;98712.98;1803045;79;20276;-77
2021/01/31 07:21:05;;;;;;;25.02;17.65;;;;;;;5.87;84.08;98712.23;1764079;81;21718;-77
2021/01/31 07:24:16;;;;;;;20.37;14.23;;;;;;;5.95;83.57;98715.94;1802844;79;21290;-77
2021/01/31 07:27:26;;;;;;;;;;;;;;;6.04;82.44;98725.69;1811118;79;21889;-78
2021/01/31 07:31:04;;;;;;;16.95;11.88;;;;;;;6.08;81.61;98732.44;1808257;79;20299;-78
2021/01/31 07:34:16;;;;;;;19.27;12.50;;;;;;;6.08;80.09;98728.36;1807144;79;21314;-78
2021/01/31 07:37:25;;;;;;;16.65;9.98;;;;;;;5.96;78.09;98732.03;1808394;79;21289;-77
2021/01/31 07:40:31;;;;;;;;;;;;;;;5.80;77.13;98763.38;1811036;79;22230;-77
2021/01/31 07:43:39;;;;;;;17.05;12.23;;;;;;;5.60;76.28;98733.21;1808503;79;20299;-78
2021/01/31 07:46:46;;;;;;;19.63;10.97;;;;;;;5.46;76.85;98764.68;1807916;79;21180;-77
2021/01/31 07:50:14;;;;;;;18.73;11.38;;;;;;;5.46;77.57;98767.88;1806920;79;21282;-77
2021/01/31 07:53:20;;;;;;;20.77;13.20;;;;;;;5.45;77.21;98766.19;1808271;79;21282;-77
2021/01/31 07:56:41;;;;;;;27.60;15.18;;;;;;;5.29;76.67;98774.78;1784747;79;21298;-78
2021/01/31 07:59:46;;;;;;;20.92;13.15;;;;;;;5.15;77.09;98778.27;1806714;79;21298;-77
2021/01/31 08:02:59;;;;;;;25.32;13.95;;;;;;;5.05;77.90;98797.98;1808021;79;21321;-78
2021/01/31 08:06:13;;;;;;;19.00;12.85;;;;;;;4.95;78.21;98809.05;1806617;79;21814;-78
2021/01/31 08:09:37;;;;;;;19.98;13.22;;;;;;;4.80;78.73;98818.94;1808186;79;21283;-78
2021/01/31 08:13:04;;;;;;;18.87;12.58;;;;;;;4.56;78.44;98825.27;1806927;79;21334;-76
2021/01/31 08:16:54;;;;;;;15.70;11.50;;;;;;;4.35;77.91;98827.20;1809254;79;21277;-78
2021/01/31 08:20:03;;;;;;;19.67;13.88;;;;;;;4.22;77.92;98827.72;1807041;79;21369;-77
2021/01/31 08:23:33;;;;;;;15.95;12.13;;;;;;;4.15;78.56;98851.09;1808493;79;21274;-78
2021/01/31 08:26:50;;;;;;;19.93;14.07;;;;;;;4.10;78.78;98862.93;1804963;78;21302;-77
2021/01/31 08:29:55;;;;;;;22.02;14.30;;;;;;;4.02;78.59;98889.98;1764667;81;21833;-77
2021/01/31 08:33:12;;;;;;;24.00;15.85;;;;;;;3.84;77.92;98896.39;1764803;79;21747;-77
2021/01/31 08:36:29;;;;;;;18.45;12.82;;;;;;;3.62;78.17;98911.91;1763181;81;21341;-77
2021/01/31 08:39:38;;;;;;;20.57;13.50;;;;;;;3.36;78.47;98900.37;1802822;79;21619;-78
2021/01/31 08:42:44;;;;;;;18.20;11.68;;;;;;;3.24;79.07;98903.86;1763674;81;21225;-77
2021/01/31 08:45:52;;;;;;;19.48;11.93;;;;;;;3.17;78.43;98895.58;1785561;79;21329;-77
2021/01/31 08:49:06;;;;;;;14.05;10.40;;;;;;;3.08;77.97;98902.80;1764380;81;21338;-77
2021/01/31 08:52:23;;;;;;;14.70;10.03;;;;;;;3.03;77.66;98909.70;1803805;79;21747;-77
2021/01/31 08:55:30;;;;;;;14.75;10.82;;;;;;;3.04;76.86;98918.98;1802860;79;21176;-77
2021/01/31 08:58:35;;;;;;;15.85;10.40;;;;;;;3.17;77.32;98925.30;1801267;79;21331;-78
2021/01/31 09:01:52;;;;;;;16.27;10.18;;;;;;;3.28;77.58;98932.26;1764511;81;21841;-77
2021/01/31 09:05:20;;;;;;;24.20;11.43;;;;;;;3.31;77.17;98944.95;1803161;79;21580;-77
2021/01/31 09:08:26;;;;;;;16.95;11.93;;;;;;;3.33;77.31;98945.61;1764555;81;21361;-77
2021/01/31 09:11:32;;;;;;;16.42;10.40;;;;;;;3.29;75.82;98948.81;1802461;79;21207;-77
2021/01/31 09:14:41;;;;;;;13.55;9.98;;;;;;;3.17;75.03;98977.99;1764364;81;21353;-78
2021/01/31 09:17:47;;;;;;;12.25;9.28;;;;;;;2.94;73.87;98989.01;1801061;79;21287;-77
2021/01/31 09:20:55;;;;;;;16.70;10.28;;;;;;;2.82;75.01;98997.86;1801474;79;21864;-78
2021/01/31 09:24:05;;;;;;;15.45;10.65;;;;;;;2.77;75.23;99002.39;1764580;81;21889;-77
2021/01/31 09:27:11;;;;;;;12.85;9.43;;;;;;;2.67;75.14;99008.91;1802575;78;21227;-77
2021/01/31 09:30:17;;;;;;;15.63;10.78;;;;;;;2.56;75.09;99022.16;1802459;79;21282;-77
2021/01/31 09:33:45;;;;;;;23.98;15.80;;;;;;;2.51;75.14;99026.68;1763076;81;21356;-76
2021/01/31 09:36:50;;;;;;;21.77;14.07;;;;;;;2.47;75.56;99052.79;1802620;79;21822;-77
2021/01/31 09:39:49;;;;;;;24.27;15.60;;;;;;;2.33;74.59;99054.69;1764565;81;21496;-77
2021/01/31 09:42:56;;;;;;;22.05;14.68;;;;;;;2.08;73.86;99071.14;1802067;79;21290;-77
2021/01/31 09:46:05;;;;;;;20.70;13.88;;;;;;;1.93;74.25;99052.78;1764613;81;21227;-77
2021/01/31 09:49:18;;;;;;;21.90;14.98;;;;;;;1.86;73.96;99075.94;1802940;79;21783;-77
2021/01/31 09:52:24;;;;;;;24.72;15.05;;;;;;;1.79;73.91;99088.34;1785959;79;21302;-76
2021/01/31 09:55:52;;;;;;;23.90;15.28;;;;;;;1.77;74.42;99093.02;1803557;79;21286;-77
2021/01/31 09:58:57;;;;;;;21.75;14.15;;;;;;;1.84;74.72;99099.52;1764593;81;21298;-77
2021/01/31 10:02:12;;;;;;;21.65;14.38;;;;;;;1.90;74.25;99094.87;1802968;79;21822;-77
2021/01/31 10:05:25;;;;;;;24.67;15.50;;;;;;;1.85;74.34;99105.77;1802522;79;21920;-78
2021/01/31 10:08:33;;;;;;;22.27;15.05;;;;;;;1.72;73.50;99119.58;1786764;79;21881;-77
2021/01/31 10:11:48;;;;;;;19.52;12.88;;;;;;;1.62;73.58;99123.67;1762906;81;21187;-77
2021/01/31 10:14:55;;;;;;;20.57;13.40;;;;;;;1.61;74.07;99121.13;1802901;79;21219;-77
2021/01/31 10:18:00;;;;;;;22.27;14.33;;;;;;;1.65;74.62;99140.91;1764770;81;21314;-77
2021/01/31 10:21:26;;;;;;;20.48;14.40;;;;;;;1.68;72.87;99151.38;1802077;79;21315;-77
2021/01/31 10:24:39;;;;;;;21.95;14.35;;;;;;;1.59;73.07;99159.00;1763230;81;21306;-78
2021/01/31 10:27:51;;;;;;;20.77;13.98;;;;;;;1.55;73.89;99150.84;1802065;79;21192;-77
2021/01/31 10:30:58;;;;;;;21.48;13.43;;;;;;;1.64;73.22;99172.03;1816684;79;21332;-77
2021/01/31 10:34:05;;;;;;;20.90;13.03;;;;;;;1.68;73.05;99167.55;1814826;79;21318;-77
2021/01/31 10:37:28;;;;;;;21.00;14.20;;;;;;;1.79;73.98;99168.73;1817063;79;21337;-77
2021/01/31 10:40:32;;;;;;;17.67;12.68;;;;;;;1.82;73.37;99185.09;1816496;79;21361;-77
2021/01/31 10:43:39;;;;;;;23.38;15.05;;;;;;;1.83;71.48;99192.68;1777868;80;21341;-77
2021/01/31 10:46:47;;;;;;;23.80;15.95;;;;;;;1.75;70.20;99199.67;1746286;82;21186;-76
2021/01/31 10:49:54;;;;;;;25.23;16.80;;;;;;;1.69;71.68;99207.48;1748275;82;21186;-78
2021/01/31 10:53:00;;;;;;;25.17;15.68;;;;;;;1.64;72.64;99208.42;1746421;82;21333;-77
2021/01/31 10:56:06;;;;;;;23.50;16.45;;;;;;;1.55;72.65;99215.53;1747734;82;21308;-77
2021/01/31 10:59:13;;;;;;;24.12;16.85;;;;;;;1.49;71.13;99225.05;1747858;82;21320;-78
2021/01/31 11:02:19;;;;;;;28.32;18.67;;;;;;;1.48;70.03;99236.84;1747786;82;21839;-78
2021/01/31 11:05:27;;;;;;;27.95;20.08;;;;;;;1.45;71.51;99247.89;1747795;82;21309;-77
2021/01/31 11:08:33;;;;;;;29.50;20.00;;;;;;;1.40;68.73;99262.80;1747714;82;21222;-77
2021/01/31 11:11:39;;;;;;;32.70;18.67;;;;;;;1.37;68.73;99255.87;1746091;82;21245;-77
2021/01/31 11:14:45;;;;;;;29.15;19.55;;;;;;;1.37;69.47;99255.87;1746730;82;21210;-77
2021/01/31 11:17:51;;;;;;;28.67;20.50;;;;;;;1.34;70.58;99264.73;1747880;82;21743;-77
2021/01/31 11:20:58;;;;;;;25.00;17.75;;;;;;;1.34;69.49;99263.38;1747600;81;22514;-78
2021/01/31 11:24:05;;;;;;;29.20;18.60;;;;;;;1.36;69.41;99265.42;1747233;82;21190;-77
2021/01/31 11:27:10;;;;;;;24.37;16.20;;;;;;;1.36;67.85;99269.47;1747809;82;22600;-78
2021/01/31 11:30:19;;;;;;;27.15;18.85;;;;;;;1.36;70.16;99271.66;1742318;82;21330;-78
2021/01/31 11:33:26;;;;;;;28.50;19.40;;;;;;;1.37;69.70;99279.27;1741020;82;21348;-77
2021/01/31 11:36:32;;;;;;;26.62;17.98;;;;;;;1.39;69.26;99284.86;1742103;81;21260;-78
2021/01/31 11:39:39;;;;;;;27.05;17.10;;;;;;;1.42;70.20;99306.64;1742318;82;21353;-78
2021/01/31 11:42:45;;;;;;;25.95;17.05;;;;;;;1.48;69.36;99321.73;1742169;82;21365;-78
2021/01/31 11:45:50;;;;;;;26.93;18.25;;;;;;;1.52;68.54;99329.04;1742344;82;21301;-78
2021/01/31 11:48:58;;;;;;;24.15;15.45;;;;;;;1.52;68.27;99336.63;1742207;82;21297;-77
2021/01/31 11:52:05;;;;;;;24.65;15.58;;;;;;;1.54;68.80;99345.91;1742167;81;21234;-78
2021/01/31 11:55:12;;;;;;;23.52;14.30;;;;;;;1.52;68.42;99355.99;1741119;82;21230;-78
2021/01/31 11:58:19;;;;;;;24.37;15.80;;;;;;;1.53;68.30;99351.80;1741968;82;21352;-78
2021/01/31 12:01:26;;;;;;;21.37;14.25;;;;;;;1.51;67.44;99347.56;1745916;81;21287;-77
2021/01/31 12:04:31;;;;;;;21.77;13.98;;;;;;;1.48;66.92;99347.83;1741147;82;21307;-78
2021/01/31 12:07:37;;;;;;;18.48;12.73;;;;;;;1.43;66.42;99364.42;1739390;82;21238;-78
2021/01/31 12:10:43;;;;;;;22.37;13.93;;;;;;;1.41;66.84;99355.64;1742222;82;21268;-77
2021/01/31 12:13:50;;;;;;;18.30;12.63;;;;;;;1.42;66.67;99353.80;1742284;82;21316;-78
2021/01/31 12:16:56;;;;;;;18.75;13.88;;;;;;;1.40;66.33;99367.39;1772711;81;21835;-77
2021/01/31 12:20:00;;;;;;;19.25;11.18;;;;;;;1.38;67.07;99368.54;1772553;81;21304;-78
2021/01/31 12:23:06;;;;;;;16.42;10.98;;;;;;;1.31;66.72;99362.00;1771580;81;21327;-78
2021/01/31 12:26:11;;;;;;;18.48;10.88;;;;;;;1.20;66.89;99368.37;1770843;81;21873;-78
2021/01/31 12:29:18;;;;;;;16.40;11.48;;;;;;;1.11;66.80;99362.47;1771339;81;21313;-78
2021/01/31 12:32:24;;;;;;;19.48;12.82;;;;;;;1.05;66.65;99348.22;1771504;81;21800;-78
2021/01/31 12:35:29;;;;;;;17.67;11.10;;;;;;;1.02;67.21;99361.45;1771757;81;21858;-78
2021/01/31 12:38:36;;;;;;;26.75;14.98;;;;;;;1.02;67.75;99356.92;1772201;81;21375;-77
2021/01/31 12:41:42;;;;;;;26.73;14.28;;;;;;;1.06;68.38;99364.73;1772876;81;21296;-77
2021/01/31 12:44:49;;;;;;;14.23;10.48;;;;;;;1.10;68.44;99383.17;1772407;81;21347;-78
2021/01/31 12:47:55;;;;;;;14.45;9.08;;;;;;;1.18;67.91;99406.23;1772936;81;21832;-77
2021/01/31 12:51:02;;;;;;;14.23;9.55;;;;;;;1.23;67.05;99405.32;1772835;81;21308;-78
2021/01/31 12:54:07;;;;;;;14.53;10.00;;;;;;;1.25;66.44;99403.33;1771767;81;21370;-78
2021/01/31 12:57:15;;;;;;;20.57;12.53;;;;;;;1.27;66.37;99408.09;1772635;81;21170;-78
2021/01/31 13:00:23;;;;;;;32.42;16.93;;;;;;;1.34;66.68;99421.00;1772741;81;21280;-77
2021/01/31 13:03:30;;;;;;;13.70;9.85;;;;;;;1.39;66.33;99422.78;1773145;81;21165;-78
2021/01/31 13:06:36;;;;;;;16.32;9.53;;;;;;;1.46;65.86;99433.38;1771396;81;21772;-78
2021/01/31 13:09:41;;;;;;;34.85;17.73;;;;;;;1.53;65.05;99442.59;1771624;81;21312;-77
2021/01/31 13:12:48;;;;;;;13.72;9.80;;;;;;;1.54;64.76;99449.67;1772686;81;21288;-77
2021/01/31 13:15:53;;;;;;;13.30;8.58;;;;;;;1.59;65.03;99450.11;1771311;81;22546;-78
2021/01/31 13:18:59;;;;;;;13.80;9.15;;;;;;;1.61;63.90;99442.75;1770544;81;21315;-78
2021/01/31 13:22:04;;;;;;;14.95;10.23;;;;;;;1.59;64.57;99440.67;1770910;81;21808;-77
2021/01/31 13:25:11;;;;;;;11.75;8.35;;;;;;;1.60;63.98;99457.23;1772094;81;21760;-77
2021/01/31 13:28:16;;;;;;;12.75;7.92;;;;;;;1.65;64.04;99459.50;1773538;81;21165;-77
2021/01/31 13:31:23;;;;;;;11.63;8.63;;;;;;;1.69;63.55;99486.01;1769924;81;21390;-77
2021/01/31 13:34:31;;;;;;;15.03;9.73;;;;;;;1.74;63.82;99512.55;1772527;81;21323;-77
2021/01/31 13:37:37;;;;;;;14.68;9.03;;;;;;;1.79;64.15;99540.83;1772544;81;21185;-77
2021/01/31 13:40:43;;;;;;;12.43;8.45;;;;;;;1.87;64.37;99543.31;1773090;81;21787;-77
2021/01/31 13:43:49;;;;;;;12.00;8.33;;;;;;;1.90;64.52;99544.39;1770838;81;21248;-77
2021/01/31 13:46:55;;;;;;;11.55;8.13;;;;;;;1.86;65.12;99545.16;1771622;81;21350;-77
2021/01/31 13:50:01;;;;;;;13.48;9.48;;;;;;;1.85;64.54;99562.34;1772763;81;21362;-77
2021/01/31 13:53:07;;;;;;;12.95;7.92;;;;;;;1.79;64.45;99555.66;1772509;81;21291;-77
2021/01/31 13:56:13;;;;;;;14.20;9.33;;;;;;;1.75;64.89;99577.15;1771994;81;21379;-77
2021/01/31 13:59:21;;;;;;;10.82;7.47;;;;;;;1.70;65.02;99575.36;1771174;81;21823;-76
2021/01/31 14:02:26;;;;;;;15.80;10.28;;;;;;;1.71;64.96;99573.52;1772752;81;21308;-77
2021/01/31 14:05:32;;;;;;;12.47;8.65;;;;;;;1.71;65.24;99571.67;1772631;81;21339;-77
2021/01/31 14:08:37;;;;;;;14.23;9.25;;;;;;;1.71;65.55;99564.08;1772749;81;21586;-78
2021/01/31 14:11:42;;;;;;;14.00;9.15;;;;;;;1.63;65.67;99553.13;1772586;81;21734;-78
2021/01/31 14:14:49;;;;;;;13.05;9.48;;;;;;;1.54;66.15;99558.84;1772579;81;21300;-77
2021/01/31 14:17:55;;;;;;;13.10;9.03;;;;;;;1.44;66.57;99570.09;1771196;81;21138;-77
2021/01/31 14:21:00;;;;;;;13.70;8.58;;;;;;;1.40;66.67;99588.86;1771386;81;21351;-78
2021/01/31 14:24:06;;;;;;;15.80;9.73;;;;;;;1.36;66.27;99592.81;1772722;81;21292;-78
2021/01/31 14:27:11;;;;;;;13.18;8.88;;;;;;;1.36;65.95;99595.50;1771704;81;21189;-78
2021/01/31 14:30:18;;;;;;;14.43;9.55;;;;;;;1.35;65.90;99587.92;1771425;81;21362;-77
2021/01/31 14:33:28;;;;;;;15.72;9.10;;;;;;;1.32;65.71;99596.75;1756583;81;21329;-77
2021/01/31 14:36:34;;;;;;;14.65;9.15;;;;;;;1.28;65.77;99603.78;1743351;82;21380;-77
2021/01/31 14:39:40;;;;;;;13.22;9.55;;;;;;;1.28;66.02;99606.48;1744911;82;21816;-77
2021/01/31 14:42:40;;;;;;;23.87;15.53;;;;;;;1.30;66.14;99594.70;1744796;82;21882;-77
2021/01/31 14:45:47;;;;;;;16.90;11.15;;;;;;;1.30;66.17;99590.16;1745065;82;21499;-77
2021/01/31 14:48:52;;;;;;;20.52;13.45;;;;;;;1.33;66.09;99599.84;1744807;82;21824;-77
2021/01/31 14:51:58;;;;;;;21.10;13.58;;;;;;;1.35;66.34;99607.28;1744817;82;21823;-77
2021/01/31 14:55:15;;;;;;;19.37;13.25;;;;;;;1.37;66.38;99610.21;1743286;81;21244;-77
2021/01/31 14:58:19;;;;;;;21.75;14.35;;;;;;;1.42;66.46;99602.57;1743266;82;21364;-77